Terminal Aerodrome Forecast
Issued by NWS

Home | Current Version | Previous Version | Text Only | Print | Product List | Glossary Off
Versions: 1 2 3 4 5 6 7 8 9 10 11 12

000
FTUS43 KIWX 141722
TAFSBN
TAF
KSBN 141722Z 1418/1518 22006KT P6SM SCT250
     FM150400 21005KT P6SM VCSH BKN100
     FM151200 26006KT P6SM BKN025
     FM151600 29007KT P6SM BKN035=

USA.gov is the U.S. government's official web portal to all federal, state and local government web resources and services.